createdAt,value
2019-04-23T00:03:49.488Z,16.10
2019-04-23T00:06:24.941Z,16.10
2019-04-23T00:11:30.807Z,16.10
2019-04-23T00:16:27.619Z,16.10
2019-04-23T00:18:49.741Z,16.00
2019-04-23T00:21:39.013Z,16.00
2019-04-23T00:24:11.691Z,16.00
2019-04-23T00:26:39.009Z,16.00
2019-04-23T00:29:11.871Z,16.00
2019-04-23T00:31:36.301Z,16.10
2019-04-23T00:34:09.249Z,16.00
2019-04-23T00:36:44.755Z,16.00
2019-04-23T00:39:10.330Z,16.00
2019-04-23T00:41:48.173Z,16.00
2019-04-23T00:44:15.160Z,16.00
2019-04-23T00:46:40.155Z,16.00
2019-04-23T00:49:19.823Z,16.00
2019-04-23T00:51:54.831Z,16.00
2019-04-23T00:54:22.552Z,15.90
2019-04-23T00:59:12.457Z,15.90
2019-04-23T01:01:56.701Z,15.90
2019-04-23T01:04:20.403Z,15.80
2019-04-23T01:06:52.338Z,15.80
2019-04-23T01:09:22.729Z,15.80
2019-04-23T01:11:52.236Z,15.80
2019-04-23T01:14:20.246Z,15.80
2019-04-23T01:16:49.518Z,15.70
2019-04-23T01:19:43.815Z,15.70
2019-04-23T01:21:55.627Z,15.70
2019-04-23T01:24:50.839Z,15.60
2019-04-23T01:27:53.101Z,15.70
2019-04-23T01:30:23.598Z,15.60
2019-04-23T01:33:02.605Z,15.60
2019-04-23T01:35:20.454Z,15.50
2019-04-23T01:37:47.779Z,15.50
2019-04-23T01:40:27.176Z,15.50
2019-04-23T01:42:49.324Z,15.40
2019-04-23T01:45:31.410Z,15.40
2019-04-23T01:47:54.669Z,15.40
2019-04-23T01:50:54.931Z,15.40
2019-04-23T01:53:02.865Z,15.30
2019-04-23T01:55:26.320Z,15.20
2019-04-23T02:00:37.067Z,15.10
2019-04-23T02:03:05.570Z,15.10
2019-04-23T02:05:38.449Z,15.10
2019-04-23T02:10:47.578Z,15.10
2019-04-23T02:13:11.355Z,15.00
2019-04-23T02:18:13.729Z,15.00
2019-04-23T02:23:24.917Z,14.90
2019-04-23T02:28:31.090Z,14.90
2019-04-23T02:43:29.112Z,14.90
2019-04-23T02:51:04.870Z,14.80
2019-04-23T02:53:55.596Z,14.80
2019-04-23T02:56:18.896Z,14.80
2019-04-23T02:58:43.980Z,14.80
2019-04-23T03:01:25.336Z,14.70
2019-04-23T03:03:57.111Z,14.70
2019-04-23T03:06:18.899Z,14.70
2019-04-23T03:16:33.905Z,14.60
2019-04-23T03:19:19.157Z,14.60
2019-04-23T03:22:00.210Z,14.60
2019-04-23T03:27:28.719Z,14.60
2019-04-23T03:30:43.069Z,14.60
2019-04-23T03:40:02.122Z,14.50
2019-04-23T03:42:38.882Z,14.50
2019-04-23T03:45:17.071Z,14.50
2019-04-23T03:47:32.200Z,14.50
2019-04-23T03:55:12.610Z,14.50
2019-04-23T04:00:15.727Z,14.40
2019-04-23T04:05:15.215Z,14.40
2019-04-23T04:10:05.415Z,14.30
2019-04-23T04:12:39.864Z,14.30
2019-04-23T04:17:52.255Z,14.30
2019-04-23T04:25:33.622Z,14.30
2019-04-23T04:30:21.743Z,14.30
2019-04-23T04:32:59.125Z,14.30
2019-04-23T04:35:22.063Z,14.30
2019-04-23T04:38:16.531Z,14.20
2019-04-23T04:40:31.363Z,14.20
2019-04-23T04:50:24.143Z,14.30
2019-04-23T04:55:26.572Z,14.30
2019-04-23T05:06:02.672Z,14.40
2019-04-23T05:10:44.110Z,14.40
2019-04-23T05:15:28.356Z,14.40
2019-04-23T05:20:58.028Z,14.40
2019-04-23T05:23:45.374Z,14.40
2019-04-23T05:26:15.540Z,14.40
2019-04-23T05:28:55.503Z,14.30
2019-04-23T05:31:18.612Z,14.30
2019-04-23T05:33:46.445Z,14.30
2019-04-23T05:36:33.981Z,14.30
2019-04-23T05:39:01.267Z,14.30
2019-04-23T05:41:23.345Z,14.30
2019-04-23T05:43:54.731Z,14.20
2019-04-23T05:46:26.439Z,14.20
2019-04-23T05:48:54.375Z,14.20
2019-04-23T05:51:27.959Z,14.30
2019-04-23T05:53:56.282Z,14.30
2019-04-23T05:56:41.890Z,14.30
2019-04-23T05:58:58.025Z,14.30
2019-04-23T06:01:53.087Z,14.30
2019-04-23T06:06:52.399Z,14.40
2019-04-23T06:09:09.092Z,14.40
2019-04-23T06:11:47.344Z,14.40
2019-04-23T06:14:11.859Z,14.50
2019-04-23T06:16:47.249Z,14.50
2019-04-23T06:19:13.693Z,14.50
2019-04-23T06:21:56.150Z,14.50
2019-04-23T06:24:16.245Z,14.60
2019-04-23T06:26:49.245Z,14.60
2019-04-23T06:29:20.501Z,14.60
2019-04-23T06:31:50.772Z,14.70
2019-04-23T06:34:17.113Z,14.70
2019-04-23T06:36:46.644Z,14.80
2019-04-23T06:39:23.668Z,14.80
2019-04-23T06:41:49.877Z,14.80
2019-04-23T06:44:28.915Z,14.80
2019-04-23T06:46:56.934Z,14.80
2019-04-23T06:49:26.717Z,14.90
2019-04-23T06:52:08.380Z,14.90
2019-04-23T06:54:25.763Z,14.90
2019-04-23T07:04:34.540Z,15.10
2019-04-23T07:07:29.102Z,15.10
2019-04-23T07:09:26.255Z,15.10
2019-04-23T07:12:07.666Z,15.20
2019-04-23T07:14:36.542Z,15.20
2019-04-23T07:17:04.095Z,15.20
2019-04-23T07:19:38.265Z,15.30
2019-04-23T07:22:14.428Z,15.30
2019-04-23T07:24:43.685Z,15.40
2019-04-23T07:27:11.750Z,15.40
2019-04-23T07:29:41.703Z,15.40
2019-04-23T07:32:23.271Z,15.50
2019-04-23T07:34:49.481Z,15.50
2019-04-23T07:37:16.026Z,15.60
2019-04-23T07:46:10.525Z,15.70
2019-04-23T07:48:24.224Z,15.80
2019-04-23T07:51:00.823Z,15.80
2019-04-23T07:53:53.524Z,15.90
2019-04-23T07:56:08.704Z,15.90
2019-04-23T07:58:46.372Z,16.00
2019-04-23T08:01:06.905Z,15.90
2019-04-23T08:06:05.917Z,15.80
2019-04-23T08:08:39.341Z,15.80
2019-04-23T08:13:55.664Z,15.80
2019-04-23T08:18:55.625Z,15.90
2019-04-23T08:21:18.247Z,15.90
2019-04-23T08:24:06.496Z,16.00
2019-04-23T08:31:52.381Z,16.20
2019-04-23T08:34:30.731Z,16.30
2019-04-23T08:36:58.212Z,16.40
2019-04-23T08:39:24.957Z,16.50
2019-04-23T08:42:09.471Z,16.50
2019-04-23T08:44:46.151Z,16.50
2019-04-23T08:47:17.072Z,16.60
2019-04-23T08:49:46.805Z,16.60
2019-04-23T08:52:21.554Z,16.70
2019-04-23T08:57:21.545Z,16.70
2019-04-23T08:59:50.161Z,16.80
2019-04-23T09:02:31.369Z,16.90
2019-04-23T09:04:55.312Z,16.90
2019-04-23T09:07:31.858Z,17.00
2019-04-23T09:09:59.013Z,17.10
2019-04-23T09:12:31.708Z,17.10
2019-04-23T09:15:01.497Z,17.20
2019-04-23T09:20:13.203Z,17.30
2019-04-23T09:25:08.380Z,17.40
2019-04-23T09:27:33.236Z,17.40
2019-04-23T09:32:36.412Z,17.50
2019-04-23T09:35:30.693Z,17.60
2019-04-23T09:38:19.876Z,17.70
2019-04-23T09:41:16.730Z,17.70
2019-04-23T09:49:58.285Z,17.90
2019-04-23T09:52:14.712Z,18.00
2019-04-23T09:54:51.200Z,18.10
2019-04-23T09:57:12.473Z,18.20
2019-04-23T09:59:43.306Z,18.20
2019-04-23T10:02:05.498Z,18.30
2019-04-23T10:04:32.023Z,18.30
2019-04-23T10:07:04.563Z,18.50
2019-04-23T10:09:20.810Z,18.50
2019-04-23T10:11:51.168Z,18.50
2019-04-23T10:14:20.832Z,18.60
2019-04-23T10:16:51.673Z,18.70
2019-04-23T10:19:22.582Z,18.70
2019-04-23T10:21:53.264Z,18.80
2019-04-23T10:24:23.405Z,18.80
2019-04-23T10:26:52.796Z,18.90
2019-04-23T10:29:25.813Z,19.00
2019-04-23T10:31:55.527Z,19.00
2019-04-23T10:34:25.384Z,19.10
2019-04-23T10:36:55.626Z,19.10
2019-04-23T10:39:30.389Z,19.20
2019-04-23T10:41:57.582Z,19.20
2019-04-23T10:44:33.549Z,19.30
2019-04-23T10:48:24.731Z,19.40
2019-04-23T10:51:00.301Z,19.50
2019-04-23T10:55:58.916Z,19.70
2019-04-23T10:58:24.951Z,19.80
2019-04-23T11:01:00.230Z,19.90
2019-04-23T11:03:41.691Z,19.90
2019-04-23T11:08:30.985Z,20.00
2019-04-23T11:11:12.353Z,20.10
2019-04-23T11:13:32.025Z,20.20
2019-04-23T11:16:45.171Z,20.30
2019-04-23T11:18:53.875Z,20.40
2019-04-23T11:24:19.031Z,20.60
2019-04-23T11:26:34.578Z,20.70
2019-04-23T11:29:12.452Z,20.80
2019-04-23T11:31:43.684Z,20.90
2019-04-23T11:34:20.245Z,20.90
2019-04-23T11:36:53.859Z,20.90
2019-04-23T11:39:16.198Z,21.00
2019-04-23T11:44:26.411Z,21.10
2019-04-23T11:54:24.174Z,21.30
2019-04-23T11:59:39.264Z,21.40
2019-04-23T12:02:49.871Z,21.50
2019-04-23T12:17:22.594Z,21.70
2019-04-23T12:24:58.219Z,21.80
2019-04-23T12:27:08.160Z,21.80
2019-04-23T12:35:04.328Z,21.90
2019-04-23T12:37:55.572Z,21.80
2019-04-23T12:43:05.722Z,21.90
2019-04-23T12:48:06.298Z,21.90
2019-04-23T12:53:05.717Z,21.90
2019-04-23T12:58:23.777Z,21.90
2019-04-23T13:00:46.224Z,21.90
2019-04-23T13:03:37.164Z,21.90
2019-04-23T13:05:51.392Z,21.90
2019-04-23T13:08:35.200Z,21.90
2019-04-23T13:11:14.801Z,21.90
2019-04-23T13:16:06.287Z,21.90
2019-04-23T13:18:41.539Z,22.00
2019-04-23T13:21:15.746Z,22.10
2019-04-23T13:23:34.775Z,22.10
2019-04-23T13:26:04.249Z,22.20
2019-04-23T13:28:37.555Z,22.30
2019-04-23T13:31:12.644Z,22.30
2019-04-23T13:33:43.851Z,22.30
2019-04-23T13:43:52.602Z,22.30
2019-04-23T13:46:14.858Z,22.30
2019-04-23T13:48:49.329Z,22.30
2019-04-23T13:53:57.399Z,22.30
2019-04-23T14:01:28.840Z,22.40
2019-04-23T14:04:07.820Z,22.40
2019-04-23T14:11:32.390Z,22.40
2019-04-23T14:14:19.672Z,22.40
2019-04-23T14:19:23.240Z,22.40
2019-04-23T14:21:44.528Z,22.30
2019-04-23T14:24:38.121Z,22.30
2019-04-23T14:27:09.665Z,22.30
2019-04-23T14:29:22.961Z,22.20
2019-04-23T14:31:57.196Z,22.20
2019-04-23T14:34:19.360Z,22.20
2019-04-23T14:36:57.684Z,22.10
2019-04-23T14:39:40.493Z,22.10
2019-04-23T14:42:03.276Z,22.10
2019-04-23T14:44:30.943Z,22.20
2019-04-23T14:47:16.801Z,22.20
2019-04-23T14:50:09.387Z,22.20
2019-04-23T14:52:23.302Z,22.20
2019-04-23T14:55:37.929Z,22.10
2019-04-23T14:57:32.698Z,22.10
2019-04-23T15:00:01.671Z,22.10
2019-04-23T15:05:07.746Z,22.10
2019-04-23T15:07:36.252Z,22.10
2019-04-23T15:10:12.848Z,22.10
2019-04-23T15:17:33.975Z,22.10
2019-04-23T15:23:08.267Z,22.00
2019-04-23T15:25:30.168Z,21.90
2019-04-23T15:27:02.366Z,22.00
2019-04-23T15:28:05.286Z,21.80
2019-04-23T15:30:17.433Z,21.80
2019-04-23T15:33:07.570Z,21.80
2019-04-23T15:38:18.490Z,21.70
2019-04-23T15:43:02.836Z,21.60
2019-04-23T15:45:28.259Z,21.60
2019-04-23T15:48:08.543Z,21.60
2019-04-23T15:55:28.285Z,21.50
2019-04-23T16:00:30.816Z,21.50
2019-04-23T16:02:38.436Z,21.50
2019-04-23T16:05:09.398Z,21.40
2019-04-23T16:07:57.884Z,21.40
2019-04-23T16:10:45.883Z,21.40
2019-04-23T16:13:13.565Z,21.40
2019-04-23T16:15:45.417Z,21.40
2019-04-23T16:18:28.185Z,21.40
2019-04-23T16:20:58.427Z,21.40
2019-04-23T16:23:21.563Z,21.40
2019-04-23T16:26:05.500Z,21.30
2019-04-23T16:28:27.243Z,21.40
2019-04-23T16:31:03.185Z,21.40
2019-04-23T16:33:22.000Z,21.40
2019-04-23T16:38:55.633Z,21.40
2019-04-23T16:41:09.529Z,21.40
2019-04-23T16:43:42.172Z,21.40
2019-04-23T16:46:16.320Z,21.40
2019-04-23T16:48:55.451Z,21.40
2019-04-23T16:53:42.654Z,21.40
2019-04-23T16:56:18.357Z,21.40
2019-04-23T17:01:20.489Z,21.40
2019-04-23T17:04:08.273Z,21.40
2019-04-23T17:06:32.297Z,21.50
2019-04-23T17:09:05.190Z,21.40
2019-04-23T17:11:55.649Z,21.40
2019-04-23T17:14:10.139Z,21.40
2019-04-23T17:16:36.028Z,21.30
2019-04-23T17:19:14.650Z,21.30
2019-04-23T17:21:40.579Z,21.30
2019-04-23T17:26:38.939Z,21.30
2019-04-23T17:29:16.116Z,21.20
2019-04-23T17:34:23.667Z,21.10
2019-04-23T17:43:00.218Z,21.00
2019-04-23T17:48:16.157Z,20.90
2019-04-23T17:50:56.609Z,20.90
2019-04-23T17:53:25.453Z,20.80
2019-04-23T17:56:18.533Z,20.70
2019-04-23T17:58:28.861Z,20.60
2019-04-23T18:03:41.561Z,20.40
2019-04-23T18:06:23.391Z,20.40
2019-04-23T18:08:43.555Z,20.50
2019-04-23T18:11:23.319Z,20.50
2019-04-23T18:13:46.477Z,20.50
2019-04-23T18:16:16.222Z,20.50
2019-04-23T18:18:56.775Z,20.50
2019-04-23T18:21:32.259Z,20.50
2019-04-23T18:24:20.838Z,20.50
2019-04-23T18:26:58.006Z,20.50
2019-04-23T18:29:43.863Z,20.40
2019-04-23T18:32:16.984Z,20.40
2019-04-23T18:35:10.311Z,20.40
2019-04-23T18:37:22.543Z,20.40
2019-04-23T18:42:29.646Z,20.30
2019-04-23T18:44:51.870Z,20.30
2019-04-23T18:47:24.821Z,20.20
2019-04-23T18:49:55.337Z,20.30
2019-04-23T18:54:48.341Z,20.20
2019-04-23T18:57:34.031Z,20.20
2019-04-23T19:00:03.256Z,20.30
2019-04-23T19:05:28.722Z,20.30
2019-04-23T19:10:50.626Z,20.30
2019-04-23T19:13:26.440Z,20.30
2019-04-23T19:15:45.845Z,20.20
2019-04-23T19:26:02.148Z,20.10
2019-04-23T19:31:25.893Z,20.10
2019-04-23T19:34:17.553Z,20.10
2019-04-23T19:39:13.273Z,19.90
2019-04-23T19:41:52.468Z,19.90
2019-04-23T19:44:10.324Z,19.80
2019-04-23T19:49:14.896Z,19.80
2019-04-23T19:51:47.903Z,19.70
2019-04-23T19:54:39.271Z,19.70
2019-04-23T19:56:51.322Z,19.60
2019-04-23T19:59:15.624Z,19.60
2019-04-23T20:01:47.253Z,19.50
2019-04-23T20:04:15.415Z,19.50
2019-04-23T20:07:04.382Z,19.40
2019-04-23T20:09:37.369Z,19.40
2019-04-23T20:12:06.043Z,19.40
2019-04-23T20:14:19.298Z,19.40
2019-04-23T20:17:17.646Z,19.30
2019-04-23T20:19:33.069Z,19.30
2019-04-23T20:24:33.977Z,19.30
2019-04-23T20:27:06.120Z,19.20
2019-04-23T20:30:15.551Z,19.20
2019-04-23T20:34:58.878Z,19.20
2019-04-23T20:37:47.363Z,19.20
2019-04-23T20:40:04.433Z,19.10
2019-04-23T20:42:27.388Z,19.00
2019-04-23T20:45:02.580Z,19.00
2019-04-23T20:47:30.402Z,19.00
2019-04-23T20:50:09.929Z,19.00
2019-04-23T20:52:22.776Z,19.00
2019-04-23T20:57:51.717Z,18.90
2019-04-23T21:00:30.331Z,18.90
2019-04-23T21:05:36.734Z,18.80
2019-04-23T21:08:06.234Z,18.80
2019-04-23T21:13:15.174Z,18.70
2019-04-23T21:18:15.959Z,18.70
2019-04-23T21:20:43.395Z,18.70
2019-04-23T21:23:14.536Z,18.70
2019-04-23T21:31:22.812Z,18.50
2019-04-23T21:33:34.080Z,18.50
2019-04-23T21:42:39.070Z,18.40
2019-04-23T21:44:59.350Z,18.40
2019-04-23T21:47:40.234Z,18.40
2019-04-23T21:52:33.866Z,18.30
2019-04-23T21:57:44.313Z,18.30
2019-04-23T21:59:59.407Z,18.30
2019-04-23T22:02:58.894Z,18.20
2019-04-23T22:05:09.063Z,18.20
2019-04-23T22:07:46.174Z,18.20
2019-04-23T22:12:48.747Z,18.10
2019-04-23T22:15:07.346Z,18.10
2019-04-23T22:17:39.303Z,18.00
2019-04-23T22:20:21.407Z,18.00
2019-04-23T22:22:57.129Z,17.90
2019-04-23T22:25:11.262Z,17.90
2019-04-23T22:27:48.445Z,17.90
2019-04-23T22:30:11.270Z,17.80
2019-04-23T22:35:16.274Z,17.80
2019-04-23T22:40:18.490Z,17.70
2019-04-23T22:43:09.127Z,17.70
2019-04-23T22:45:21.102Z,17.70
2019-04-23T22:47:59.866Z,17.60
2019-04-23T22:50:31.451Z,17.60
2019-04-23T22:52:55.434Z,17.50
2019-04-23T22:55:23.565Z,17.50
2019-04-23T22:58:06.542Z,17.50
2019-04-23T23:01:23.739Z,17.40
2019-04-23T23:03:48.692Z,17.40
2019-04-23T23:06:29.650Z,17.40
2019-04-23T23:08:55.665Z,17.30
2019-04-23T23:11:08.861Z,17.30
2019-04-23T23:14:07.812Z,17.30
2019-04-23T23:18:52.461Z,17.20
2019-04-23T23:21:20.544Z,17.10
2019-04-23T23:23:49.668Z,17.20
2019-04-23T23:26:17.410Z,17.10
2019-04-23T23:28:44.613Z,17.10
2019-04-23T23:33:54.244Z,17.10
2019-04-23T23:36:20.205Z,17.10
2019-04-23T23:41:43.907Z,17.10
2019-04-23T23:44:08.261Z,17.10
2019-04-23T23:46:35.470Z,17.10
2019-04-23T23:48:56.038Z,17.10
2019-04-23T23:51:29.233Z,17.10
2019-04-23T23:54:01.992Z,17.10
2019-04-23T23:56:30.216Z,17.00
2019-04-23T23:59:03.730Z,17.00
